createdAt,value
2022-08-05T00:02:14.604Z,55.90
2022-08-05T00:05:05.843Z,61.94
2022-08-05T00:08:00.748Z,65.33
2022-08-05T00:10:48.379Z,65.47
2022-08-05T00:13:39.503Z,68.22
2022-08-05T00:16:36.304Z,64.68
2022-08-05T00:19:45.679Z,62.02
2022-08-05T00:22:40.982Z,63.51
2022-08-05T00:25:45.599Z,62.13
2022-08-05T00:28:33.723Z,58.32
2022-08-05T00:31:53.737Z,58.42
2022-08-05T00:34:54.216Z,60.68
2022-08-05T00:37:51.302Z,62.26
2022-08-05T00:40:53.347Z,61.22
2022-08-05T00:43:47.302Z,64.03
2022-08-05T00:46:42.693Z,61.54
2022-08-05T00:49:32.397Z,59.31
2022-08-05T00:52:28.098Z,64.35
2022-08-05T00:55:15.859Z,74.13
2022-08-05T00:58:02.919Z,76.97
2022-08-05T01:00:51.816Z,83.92
2022-08-05T01:03:40.186Z,89.07
2022-08-05T01:06:32.578Z,86.88
2022-08-05T01:09:20.349Z,83.91
2022-08-05T01:12:18.580Z,83.28
2022-08-05T01:15:35.616Z,82.13
2022-08-05T01:18:25.130Z,81.71
2022-08-05T01:21:50.682Z,80.20
2022-08-05T01:24:56.397Z,84.82
2022-08-05T01:28:00.087Z,85.41
2022-08-05T01:31:07.560Z,85.84
2022-08-05T01:34:02.943Z,85.24
2022-08-05T01:36:55.820Z,85.40
2022-08-05T01:39:49.850Z,85.03
2022-08-05T01:42:38.614Z,84.55
2022-08-05T01:45:34.858Z,84.17
2022-08-05T01:48:34.958Z,80.96
2022-08-05T01:51:23.085Z,79.55
2022-08-05T01:54:12.790Z,85.44
2022-08-05T01:58:29.707Z,90.97
2022-08-05T02:00:14.323Z,92.45
2022-08-05T02:03:24.447Z,88.47
2022-08-05T02:06:37.996Z,86.88
2022-08-05T02:09:23.641Z,86.28
2022-08-05T02:12:27.701Z,85.14
2022-08-05T02:15:33.363Z,83.70
2022-08-05T02:18:30.887Z,80.21
2022-08-05T02:21:25.450Z,78.70
2022-08-05T02:24:19.805Z,78.49
2022-08-05T02:27:12.600Z,82.96
2022-08-05T02:30:01.254Z,85.43
2022-08-05T02:32:52.909Z,88.11
2022-08-05T02:35:50.892Z,90.85
2022-08-05T02:38:53.201Z,93.54
2022-08-05T02:41:57.615Z,89.68
2022-08-05T02:44:48.574Z,87.30
2022-08-05T02:48:11.652Z,86.87
2022-08-05T02:50:48.481Z,90.20
2022-08-05T02:53:40.478Z,86.53
2022-08-05T02:56:28.191Z,86.14
2022-08-05T02:59:19.094Z,84.61
2022-08-05T03:02:07.776Z,81.45
2022-08-05T03:04:58.084Z,80.39
2022-08-05T03:08:01.736Z,80.88
2022-08-05T03:11:47.601Z,79.33
2022-08-05T03:14:02.762Z,76.65
2022-08-05T03:16:53.429Z,76.53
2022-08-05T03:19:42.025Z,75.95
2022-08-05T03:22:33.077Z,80.83
2022-08-05T03:26:03.869Z,77.05
2022-08-05T03:28:30.862Z,77.30
2022-08-05T03:31:56.275Z,76.22
2022-08-05T03:34:27.712Z,71.65
2022-08-05T03:37:16.020Z,69.53
2022-08-05T03:40:08.684Z,67.19
2022-08-05T03:42:59.413Z,66.07
2022-08-05T03:45:55.126Z,67.75
2022-08-05T03:48:46.763Z,66.17
2022-08-05T03:52:49.071Z,65.09
2022-08-05T03:55:49.906Z,64.86
2022-08-05T03:58:10.820Z,64.63
2022-08-05T04:01:02.194Z,63.73
2022-08-05T04:04:10.700Z,64.90
2022-08-05T04:06:58.837Z,64.95
2022-08-05T04:09:53.745Z,65.79
2022-08-05T04:15:32.884Z,64.58
2022-08-05T04:18:25.573Z,64.40
2022-08-05T04:21:12.719Z,63.26
2022-08-05T04:24:22.661Z,62.63
2022-08-05T04:27:09.912Z,61.99
2022-08-05T04:29:58.530Z,63.17
2022-08-05T04:32:50.967Z,62.33
2022-08-05T04:36:15.865Z,62.35
2022-08-05T04:38:45.476Z,62.81
2022-08-05T04:41:38.892Z,62.87
2022-08-05T04:44:29.216Z,65.13
2022-08-05T04:47:20.083Z,64.63
2022-08-05T04:50:11.486Z,62.11
2022-08-05T04:52:58.883Z,65.82
2022-08-05T04:56:15.289Z,62.86
2022-08-05T04:58:55.658Z,66.71
2022-08-05T05:02:07.947Z,62.25
2022-08-05T05:04:51.509Z,68.00
2022-08-05T05:07:38.766Z,61.84
2022-08-05T05:10:55.816Z,60.82
2022-08-05T05:13:43.603Z,65.49
2022-08-05T05:16:30.905Z,67.70
2022-08-05T05:19:23.633Z,65.72
2022-08-05T05:22:24.495Z,67.67
2022-08-05T05:25:16.842Z,68.49
2022-08-05T05:28:04.645Z,69.64
2022-08-05T05:30:52.404Z,69.00
2022-08-05T05:33:58.617Z,69.40
2022-08-05T05:36:47.212Z,70.61
2022-08-05T05:39:38.236Z,71.07
2022-08-05T05:42:29.379Z,70.31
2022-08-05T05:45:17.291Z,69.40
2022-08-05T05:48:08.095Z,71.15
2022-08-05T05:50:55.627Z,68.90
2022-08-05T05:53:54.150Z,69.64
2022-08-05T05:56:45.584Z,69.85
2022-08-05T05:59:40.417Z,70.79
2022-08-05T06:02:32.875Z,69.68
2022-08-05T06:05:25.103Z,66.50
2022-08-05T06:08:13.957Z,63.97
2022-08-05T06:11:18.654Z,62.54
2022-08-05T06:14:07.119Z,64.40
2022-08-05T06:16:54.105Z,67.75
2022-08-05T06:19:44.361Z,67.94
2022-08-05T06:22:43.450Z,68.45
2022-08-05T06:26:13.436Z,68.68
2022-08-05T06:28:37.428Z,69.45
2022-08-05T06:31:30.605Z,69.04
2022-08-05T06:34:20.384Z,67.73
2022-08-05T06:37:08.341Z,68.39
2022-08-05T06:39:55.454Z,68.65
2022-08-05T06:42:42.631Z,68.90
2022-08-05T06:45:44.480Z,68.73
2022-08-05T06:48:56.065Z,67.51
2022-08-05T06:51:43.661Z,67.16
2022-08-05T06:54:30.815Z,65.86
2022-08-05T06:58:02.699Z,64.47
2022-08-05T07:00:25.629Z,64.27
2022-08-05T07:03:12.747Z,58.58
2022-08-05T07:06:06.021Z,54.69
2022-08-05T07:09:04.100Z,55.98
2022-08-05T07:11:51.892Z,51.48
2022-08-05T07:14:57.331Z,55.97
2022-08-05T07:17:59.178Z,62.25
2022-08-05T07:20:51.393Z,63.86
2022-08-05T07:23:40.594Z,63.19
2022-08-05T07:26:37.117Z,63.60
2022-08-05T07:29:25.310Z,60.77
2022-08-05T07:32:36.447Z,54.59
2022-08-05T07:36:04.000Z,50.96
2022-08-05T07:38:33.910Z,53.12
2022-08-05T07:42:13.453Z,56.07
2022-08-05T07:44:31.184Z,53.34
2022-08-05T07:47:18.482Z,47.58
2022-08-05T07:50:08.471Z,45.60
2022-08-05T07:52:56.149Z,51.59
2022-08-05T07:56:04.917Z,49.61
2022-08-05T07:58:57.488Z,48.43
2022-08-05T08:01:51.837Z,47.91
2022-08-05T08:04:49.512Z,48.59
2022-08-05T08:07:39.424Z,43.24
2022-08-05T08:10:44.540Z,45.38
2022-08-05T08:13:42.993Z,44.33
2022-08-05T08:16:50.397Z,45.15
2022-08-05T08:20:10.201Z,45.00
2022-08-05T08:22:59.128Z,45.58
2022-08-05T08:26:00.085Z,42.24
2022-08-05T08:28:59.050Z,43.50
2022-08-05T08:31:50.028Z,42.51
2022-08-05T08:34:37.306Z,46.24
2022-08-05T08:37:27.911Z,43.85
2022-08-05T08:40:15.238Z,40.44
2022-08-05T08:45:01.602Z,39.77
2022-08-05T08:46:16.161Z,44.41
2022-08-05T08:50:13.210Z,40.59
2022-08-05T08:52:16.095Z,43.43
2022-08-05T08:55:04.274Z,40.84
2022-08-05T08:58:01.411Z,36.13
2022-08-05T09:00:51.500Z,35.73
2022-08-05T09:03:39.439Z,40.18
2022-08-05T09:06:32.954Z,37.08
2022-08-05T09:09:23.900Z,34.28
2022-08-05T09:12:19.953Z,34.52
2022-08-05T09:15:08.642Z,33.14
2022-08-05T09:17:56.080Z,35.51
2022-08-05T09:20:45.880Z,36.68
2022-08-05T09:23:43.308Z,36.39
2022-08-05T09:26:32.426Z,36.28
2022-08-05T09:29:20.183Z,35.36
2022-08-05T09:32:42.299Z,36.93
2022-08-05T09:35:26.520Z,32.18
2022-08-05T09:38:18.709Z,36.27
2022-08-05T09:41:16.067Z,34.14
2022-08-05T09:44:03.801Z,30.91
2022-08-05T09:47:10.463Z,33.80
2022-08-05T09:50:02.118Z,36.51
2022-08-05T09:52:57.835Z,37.80
2022-08-05T09:55:56.545Z,36.81
2022-08-05T09:59:00.157Z,36.22
2022-08-05T10:01:48.121Z,32.80
2022-08-05T10:04:45.287Z,31.44
2022-08-05T10:08:35.973Z,39.16
2022-08-05T10:10:58.131Z,35.35
2022-08-05T10:13:49.115Z,36.98
2022-08-05T10:16:41.561Z,32.45
2022-08-05T10:20:03.148Z,29.63
2022-08-05T10:22:38.046Z,31.94
2022-08-05T10:25:30.329Z,29.10
2022-08-05T10:28:19.375Z,31.22
2022-08-05T10:32:48.096Z,32.53
2022-08-05T10:34:25.826Z,32.83
2022-08-05T10:37:18.446Z,31.94
2022-08-05T10:40:18.045Z,30.96
2022-08-05T10:43:12.559Z,32.90
2022-08-05T10:46:08.200Z,31.45
2022-08-05T10:49:00.605Z,29.55
2022-08-05T10:52:00.446Z,35.61
2022-08-05T10:55:04.570Z,33.75
2022-08-05T10:58:11.669Z,33.67
2022-08-05T11:01:06.658Z,30.99
2022-08-05T11:04:12.217Z,35.74
2022-08-05T11:07:04.882Z,33.08
2022-08-05T11:10:09.605Z,30.28
2022-08-05T11:12:58.409Z,33.42
2022-08-05T11:16:00.521Z,35.51
2022-08-05T11:18:49.076Z,33.66
2022-08-05T11:21:48.818Z,34.06
2022-08-05T11:24:36.033Z,34.41
2022-08-05T11:27:50.969Z,36.60
2022-08-05T11:30:58.809Z,30.81
2022-08-05T11:33:48.950Z,33.33
2022-08-05T11:36:44.393Z,35.75
2022-08-05T11:40:00.570Z,32.64
2022-08-05T11:42:50.287Z,33.20
2022-08-05T11:46:27.263Z,35.85
2022-08-05T11:48:56.487Z,35.49
2022-08-05T11:51:50.190Z,34.21
2022-08-05T11:54:38.318Z,30.45
2022-08-05T11:58:08.390Z,31.67
2022-08-05T12:00:41.322Z,30.89
2022-08-05T12:03:41.871Z,32.39
2022-08-05T12:06:29.588Z,31.77
2022-08-05T12:09:21.145Z,30.67
2022-08-05T12:12:30.211Z,30.96
2022-08-05T12:15:35.755Z,30.18
2022-08-05T12:18:33.629Z,25.32
2022-08-05T12:21:30.180Z,29.54
2022-08-05T12:24:19.208Z,27.30
2022-08-05T12:27:09.949Z,29.52
2022-08-05T12:30:15.630Z,28.74
2022-08-05T12:33:07.127Z,28.68
2022-08-05T12:36:10.379Z,25.12
2022-08-05T12:38:58.587Z,26.70
2022-08-05T12:41:46.265Z,26.02
2022-08-05T12:44:34.357Z,26.75
2022-08-05T12:47:31.110Z,28.59
2022-08-05T12:50:19.741Z,25.98
2022-08-05T12:53:07.210Z,26.92
2022-08-05T12:55:54.546Z,27.92
2022-08-05T12:58:53.678Z,25.63
2022-08-05T13:02:00.940Z,27.76
2022-08-05T13:04:55.244Z,25.59
2022-08-05T13:08:00.115Z,27.04
2022-08-05T13:10:50.614Z,25.25
2022-08-05T13:14:04.785Z,23.56
2022-08-05T13:16:48.971Z,26.43
2022-08-05T13:19:51.680Z,25.65
2022-08-05T13:22:43.589Z,24.04
2022-08-05T13:25:52.664Z,26.33
2022-08-05T13:28:44.020Z,23.95
2022-08-05T13:32:03.079Z,22.70
2022-08-05T13:34:38.362Z,27.15
2022-08-05T13:37:34.768Z,24.54
2022-08-05T13:40:36.863Z,25.07
2022-08-05T13:43:45.341Z,24.97
2022-08-05T13:46:50.584Z,23.79
2022-08-05T13:49:45.089Z,24.42
2022-08-05T13:52:35.248Z,27.14
2022-08-05T13:55:41.825Z,25.26
2022-08-05T13:58:31.035Z,24.51
2022-08-05T14:01:18.283Z,22.96
2022-08-05T14:04:26.705Z,27.53
2022-08-05T14:07:56.223Z,21.82
2022-08-05T14:10:28.066Z,26.34
2022-08-05T14:13:16.403Z,25.99
2022-08-05T14:16:09.254Z,28.48
2022-08-05T14:18:58.102Z,27.74
2022-08-05T14:22:09.064Z,28.38
2022-08-05T14:24:58.273Z,29.15
2022-08-05T14:27:47.550Z,28.50
2022-08-05T14:30:34.569Z,29.71
2022-08-05T14:33:23.587Z,30.15
2022-08-05T14:36:11.265Z,25.53
2022-08-05T14:38:58.454Z,29.17
2022-08-05T14:42:15.974Z,29.31
2022-08-05T14:44:56.906Z,30.46
2022-08-05T14:48:02.972Z,30.50
2022-08-05T14:50:51.055Z,30.33
2022-08-05T14:53:44.498Z,30.36
2022-08-05T14:56:31.737Z,30.90
2022-08-05T14:59:21.219Z,30.46
2022-08-05T15:02:14.960Z,29.66
2022-08-05T15:05:13.250Z,30.03
2022-08-05T15:08:08.962Z,30.58
2022-08-05T15:11:04.337Z,30.78
2022-08-05T15:13:53.206Z,27.17
2022-08-05T15:16:40.225Z,29.84
2022-08-05T15:19:27.441Z,28.78
2022-08-05T15:22:16.049Z,30.89
2022-08-05T15:25:11.673Z,29.91
2022-08-05T15:28:01.417Z,30.88
2022-08-05T15:30:53.165Z,31.58
2022-08-05T15:34:04.495Z,29.83
2022-08-05T15:36:47.663Z,32.96
2022-08-05T15:40:59.324Z,31.21
2022-08-05T15:42:54.029Z,31.65
2022-08-05T15:45:45.751Z,31.94
2022-08-05T15:48:32.961Z,33.55
2022-08-05T15:52:04.355Z,30.12
2022-08-05T15:54:35.044Z,31.96
2022-08-05T15:57:24.954Z,32.50
2022-08-05T16:00:26.212Z,32.95
2022-08-05T16:03:24.895Z,32.56
2022-08-05T16:06:12.032Z,35.09
2022-08-05T16:08:59.080Z,35.38
2022-08-05T16:11:50.887Z,34.86
2022-08-05T16:14:39.952Z,35.28
2022-08-05T16:17:27.015Z,34.04
2022-08-05T16:20:16.166Z,36.16
2022-08-05T16:23:08.561Z,33.69
2022-08-05T16:26:07.521Z,36.18
2022-08-05T16:28:55.307Z,34.52
2022-08-05T16:31:57.442Z,34.66
2022-08-05T16:34:44.713Z,36.04
2022-08-05T16:38:02.248Z,34.57
2022-08-05T16:40:41.632Z,36.64
2022-08-05T16:43:31.768Z,36.53
2022-08-05T16:46:24.185Z,35.29
2022-08-05T16:49:12.776Z,35.63
2022-08-05T16:52:01.277Z,34.65
2022-08-05T16:54:49.876Z,36.50
2022-08-05T16:57:53.726Z,37.23
2022-08-05T17:00:43.916Z,33.80
2022-08-05T17:03:35.229Z,34.42
2022-08-05T17:06:24.689Z,33.56
2022-08-05T17:09:12.124Z,37.09
2022-08-05T17:12:01.247Z,34.34
2022-08-05T17:14:50.041Z,34.61
2022-08-05T17:17:42.262Z,34.98
2022-08-05T17:20:30.129Z,37.76
2022-08-05T17:24:03.581Z,37.77
2022-08-05T17:26:24.461Z,38.26
2022-08-05T17:29:12.690Z,37.59
2022-08-05T17:32:00.389Z,38.70
2022-08-05T17:34:49.160Z,39.06
2022-08-05T17:37:40.286Z,40.22
2022-08-05T17:40:29.439Z,40.79
2022-08-05T17:43:18.555Z,40.81
2022-08-05T17:46:25.656Z,41.94
2022-08-05T17:49:12.867Z,41.95
2022-08-05T17:52:00.078Z,43.39
2022-08-05T17:54:47.727Z,43.56
2022-08-05T17:57:34.886Z,44.36
2022-08-05T18:00:29.448Z,42.04
2022-08-05T18:03:56.149Z,44.29
2022-08-05T18:06:31.021Z,42.79
2022-08-05T18:09:18.322Z,42.31
2022-08-05T18:12:05.463Z,42.07
2022-08-05T18:14:52.536Z,42.62
2022-08-05T18:17:58.994Z,40.78
2022-08-05T18:20:46.901Z,42.22
2022-08-05T18:23:45.560Z,40.40
2022-08-05T18:26:33.974Z,40.78
2022-08-05T18:29:40.331Z,41.28
2022-08-05T18:32:29.531Z,40.90
2022-08-05T18:35:17.223Z,40.75
2022-08-05T18:38:04.969Z,42.17
2022-08-05T18:41:55.014Z,43.82
2022-08-05T18:44:06.549Z,44.34
2022-08-05T18:46:55.101Z,43.97
2022-08-05T18:50:01.900Z,44.02
2022-08-05T18:52:51.485Z,43.91
2022-08-05T18:55:38.974Z,44.36
2022-08-05T18:58:29.047Z,44.69
2022-08-05T19:01:18.033Z,45.83
2022-08-05T19:04:05.663Z,46.18
2022-08-05T19:06:59.364Z,46.58
2022-08-05T19:09:47.084Z,46.94
2022-08-05T19:12:36.578Z,47.40
2022-08-05T19:15:58.350Z,47.60
2022-08-05T19:18:32.123Z,48.62
2022-08-05T19:21:19.165Z,49.18
2022-08-05T19:24:12.613Z,49.40
2022-08-05T19:27:00.229Z,48.34
2022-08-05T19:29:52.022Z,49.16
2022-08-05T19:32:39.013Z,49.44
2022-08-05T19:35:26.028Z,49.63
2022-08-05T19:38:33.239Z,51.41
2022-08-05T19:41:58.385Z,50.78
2022-08-05T19:44:30.378Z,52.02
2022-08-05T19:47:17.901Z,50.60
2022-08-05T19:50:06.072Z,51.76
2022-08-05T19:52:54.908Z,52.20
2022-08-05T19:56:13.642Z,52.48
2022-08-05T19:58:53.947Z,51.65
2022-08-05T20:01:41.393Z,51.88
2022-08-05T20:04:30.586Z,51.40
2022-08-05T20:07:48.701Z,51.47
2022-08-05T20:10:25.146Z,51.87
2022-08-05T20:13:12.372Z,52.34
2022-08-05T20:16:04.223Z,54.15
2022-08-05T20:18:55.539Z,55.42
2022-08-05T20:21:43.389Z,54.45
2022-08-05T20:24:32.997Z,54.73
2022-08-05T20:27:26.880Z,55.51
2022-08-05T20:30:14.453Z,55.60
2022-08-05T20:33:05.411Z,54.84
2022-08-05T20:35:55.908Z,54.28
2022-08-05T20:38:54.573Z,54.84
2022-08-05T20:41:47.871Z,53.44
2022-08-05T20:44:37.923Z,53.13
2022-08-05T20:47:31.681Z,53.02
2022-08-05T20:50:19.537Z,54.12
2022-08-05T20:53:06.693Z,53.82
2022-08-05T20:56:08.508Z,54.49
2022-08-05T20:58:56.344Z,56.96
2022-08-05T21:01:47.499Z,58.32
2022-08-05T21:04:37.527Z,57.03
2022-08-05T21:07:24.802Z,58.79
2022-08-05T21:10:32.656Z,58.28
2022-08-05T21:13:20.410Z,58.00
2022-08-05T21:16:29.556Z,63.06
2022-08-05T21:19:17.692Z,65.93
2022-08-05T21:22:07.187Z,73.67
2022-08-05T21:24:56.600Z,91.57
2022-08-05T21:27:47.664Z,93.13
2022-08-05T21:30:40.124Z,90.83
2022-08-05T21:33:37.091Z,90.83
2022-08-05T21:36:29.841Z,90.26
2022-08-05T21:39:26.550Z,93.44
2022-08-05T21:42:31.154Z,93.56
2022-08-05T21:45:24.768Z,88.79
2022-08-05T21:48:13.667Z,88.76
2022-08-05T21:51:01.253Z,94.59
2022-08-05T21:53:56.733Z,90.94
2022-08-05T21:56:51.492Z,95.50
2022-08-05T22:00:01.914Z,94.96
2022-08-05T22:02:49.109Z,96.36
2022-08-05T22:05:48.331Z,97.01
2022-08-05T22:08:36.275Z,98.94
2022-08-05T22:11:35.192Z,99.37
2022-08-05T22:14:35.857Z,99.22
2022-08-05T22:17:25.060Z,99.13
2022-08-05T22:20:16.380Z,100.00
2022-08-05T22:23:22.598Z,93.62
2022-08-05T22:26:28.444Z,90.53
2022-08-05T22:29:17.411Z,89.58
2022-08-05T22:32:06.373Z,89.04
2022-08-05T22:34:57.077Z,95.77
2022-08-05T22:37:59.025Z,96.89
2022-08-05T22:40:49.483Z,98.03
2022-08-05T22:43:38.139Z,100.00
2022-08-05T22:46:25.714Z,100.00
2022-08-05T22:49:46.165Z,100.00
2022-08-05T22:52:22.842Z,100.00
2022-08-05T22:55:21.485Z,100.00
2022-08-05T22:58:11.749Z,100.00
2022-08-05T23:01:01.808Z,100.00
2022-08-05T23:03:58.504Z,100.00
2022-08-05T23:06:47.898Z,100.00
2022-08-05T23:09:57.728Z,100.00
2022-08-05T23:12:43.830Z,100.00
2022-08-05T23:15:35.412Z,100.00
2022-08-05T23:18:23.345Z,100.00
2022-08-05T23:21:10.429Z,100.00
2022-08-05T23:23:57.449Z,100.00
2022-08-05T23:26:45.199Z,100.00
2022-08-05T23:29:34.841Z,100.00
2022-08-05T23:32:23.776Z,100.00
2022-08-05T23:35:11.003Z,100.00
2022-08-05T23:37:58.021Z,100.00
2022-08-05T23:40:49.399Z,100.00
2022-08-05T23:44:05.320Z,100.00
2022-08-05T23:46:44.324Z,100.00
2022-08-05T23:49:35.693Z,100.00
2022-08-05T23:52:26.693Z,100.00
2022-08-05T23:55:14.865Z,100.00
2022-08-05T23:58:01.813Z,100.00
